Time;durP1;ratioP1;P1;durP2;ratioP2;P2;SDS_P1;SDS_P2;PMS_P1;PMS_P2;Temp;Humidity;BMP_temperature;BMP_pressure;BME280_temperature;BME280_humidity;BME280_pressure;Samples;Min_cycle;Max_cycle;Signal;HPM_P1;HPM_P2
2021/04/03 00:02:23;;;;;;;36.73;7.53;;;4.30;87.00;;;;;;5016393;28;20593;-85
2021/04/03 00:05:01;;;;;;;48.40;8.27;;;4.40;87.20;;;;;;5034166;28;20667;-85
2021/04/03 00:07:35;;;;;;;58.73;10.90;;;4.40;87.20;;;;;;5016171;28;20215;-85
2021/04/03 00:10:11;;;;;;;40.50;8.63;;;4.40;87.20;;;;;;5034114;28;20188;-85
2021/04/03 00:12:44;;;;;;;41.83;8.47;;;4.30;87.20;;;;;;5034553;28;20161;-85
2021/04/03 00:15:14;;;;;;;49.50;8.00;;;4.30;87.10;;;;;;5015962;28;20172;-85
2021/04/03 00:17:44;;;;;;;42.63;8.40;;;4.30;87.20;;;;;;5015557;28;20330;-85
2021/04/03 00:20:18;;;;;;;50.43;7.90;;;4.30;87.20;;;;;;5016112;28;20180;-85
2021/04/03 00:22:45;;;;;;;46.10;8.63;;;4.30;86.80;;;;;;5033813;28;20164;-85
2021/04/03 00:25:18;;;;;;;43.40;7.63;;;4.10;86.70;;;;;;5033829;28;20665;-85
2021/04/03 00:27:49;;;;;;;44.17;8.07;;;4.00;86.90;;;;;;5033652;28;20200;-85
2021/04/03 00:30:21;;;;;;;40.77;7.50;;;4.00;87.10;;;;;;5016807;28;20176;-86
2021/04/03 00:32:58;;;;;;;31.17;7.50;;;4.00;87.00;;;;;;5033602;28;20203;-86
2021/04/03 00:35:32;;;;;;;42.67;7.03;;;3.90;87.40;;;;;;5033803;28;20167;-86
2021/04/03 00:38:09;;;;;;;41.33;8.87;;;3.90;87.30;;;;;;5033476;28;20196;-85
2021/04/03 00:40:45;;;;;;;51.37;8.40;;;3.80;87.30;;;;;;5015650;28;20640;-86
2021/04/03 00:43:22;;;;;;;44.73;8.37;;;3.70;87.30;;;;;;5033440;28;20271;-85
2021/04/03 00:45:53;;;;;;;49.43;7.53;;;3.70;87.60;;;;;;5015707;28;20187;-85
2021/04/03 00:48:27;;;;;;;37.73;7.23;;;3.60;88.00;;;;;;5033375;28;20192;-85
2021/04/03 00:50:59;;;;;;;53.17;8.93;;;3.60;87.90;;;;;;5016027;28;20270;-85
2021/04/03 00:53:33;;;;;;;45.53;7.87;;;3.60;87.70;;;;;;5015578;28;20632;-85
2021/04/03 00:56:07;;;;;;;43.00;7.93;;;3.60;87.70;;;;;;5033461;28;20613;-86
2021/04/03 00:58:42;;;;;;;32.43;7.50;;;3.60;87.70;;;;;;5015422;28;20745;-85
2021/04/03 01:01:14;;;;;;;49.97;7.80;;;3.60;87.70;;;;;;5033557;28;20541;-85
2021/04/03 01:03:49;;;;;;;47.77;8.03;;;3.70;87.60;;;;;;5015465;28;20730;-85
2021/04/03 01:06:21;;;;;;;33.20;7.17;;;3.70;87.50;;;;;;5033460;28;20164;-85
2021/04/03 01:08:54;;;;;;;44.67;8.60;;;3.80;87.50;;;;;;5032943;28;20230;-85
2021/04/03 01:11:34;;;;;;;41.63;8.50;;;3.70;87.30;;;;;;5015354;28;20622;-85
2021/04/03 01:14:11;;;;;;;44.53;7.03;;;3.70;87.20;;;;;;5015348;28;20199;-85
2021/04/03 01:16:48;;;;;;;26.10;6.83;;;3.50;87.10;;;;;;5015376;28;20221;-85
2021/04/03 01:19:43;;;;;;;36.83;7.60;;;3.40;87.10;;;;;;5015282;28;20183;-85
2021/04/03 01:22:30;;;;;;;36.13;6.73;;;3.40;87.30;;;;;;5033236;28;20175;-85
2021/04/03 01:25:23;;;;;;;32.77;7.40;;;3.30;87.60;;;;;;5015278;28;20179;-85
2021/04/03 01:28:33;;;;;;;35.70;7.13;;;3.20;87.60;;;;;;5017092;28;20204;-84
2021/04/03 01:30:59;;;;;;;36.47;7.23;;;3.20;87.80;;;;;;5036979;28;20179;-85
2021/04/03 01:33:34;;;;;;;34.17;6.13;;;3.20;87.60;;;;;;5036985;28;20326;-85
2021/04/03 01:36:22;;;;;;;42.37;7.17;;;3.20;87.60;;;;;;5019120;28;20679;-85
2021/04/03 01:39:01;;;;;;;29.47;5.93;;;3.10;87.60;;;;;;5019034;28;20192;-85
2021/04/03 01:41:40;;;;;;;32.57;6.50;;;3.10;87.80;;;;;;5019012;28;20216;-85
2021/04/03 01:44:10;;;;;;;37.27;7.20;;;3.10;87.80;;;;;;5019468;28;20541;-85
2021/04/03 01:46:46;;;;;;;30.83;6.87;;;3.10;87.80;;;;;;5019082;28;20187;-85
2021/04/03 01:49:20;;;;;;;29.17;6.73;;;3.20;87.90;;;;;;5036666;28;20682;-85
2021/04/03 01:51:52;;;;;;;45.83;6.60;;;3.30;87.70;;;;;;5036672;28;20181;-85
2021/04/03 01:54:27;;;;;;;41.23;6.87;;;3.30;87.60;;;;;;5019072;28;20193;-85
2021/04/03 01:57:02;;;;;;;28.10;6.40;;;3.30;87.40;;;;;;5036350;28;20190;-85
2021/04/03 01:59:35;;;;;;;35.80;6.53;;;3.30;87.30;;;;;;5019125;28;20530;-85
2021/04/03 02:02:07;;;;;;;42.57;7.07;;;3.30;87.50;;;;;;5036320;28;20264;-85
2021/04/03 02:04:43;;;;;;;32.20;6.80;;;3.30;87.40;;;;;;5018621;28;20700;-85
2021/04/03 02:07:17;;;;;;;38.47;6.77;;;3.30;87.40;;;;;;5018376;28;20212;-85
2021/04/03 02:09:50;;;;;;;27.87;6.63;;;3.30;87.20;;;;;;5036635;28;20266;-85
2021/04/03 02:12:24;;;;;;;24.80;6.03;;;3.30;87.10;;;;;;5036207;28;20172;-85
2021/04/03 02:15:00;;;;;;;32.10;5.97;;;3.30;87.00;;;;;;5018366;28;20182;-85
2021/04/03 02:17:33;;;;;;;38.17;7.13;;;3.30;86.80;;;;;;5018267;28;20210;-84
2021/04/03 02:20:06;;;;;;;37.87;6.90;;;3.20;87.10;;;;;;5036084;28;20642;-85
2021/04/03 02:22:43;;;;;;;26.70;5.53;;;3.30;87.00;;;;;;5036084;28;20670;-84
2021/04/03 02:25:14;;;;;;;31.63;5.77;;;3.20;86.90;;;;;;5018325;28;20398;-85
2021/04/03 02:27:48;;;;;;;37.03;6.43;;;3.20;86.90;;;;;;5018098;28;20208;-84
2021/04/03 02:30:23;;;;;;;36.03;8.00;;;3.20;86.90;;;;;;5018123;28;20243;-85
2021/04/03 02:32:56;;;;;;;25.43;5.93;;;3.10;86.80;;;;;;5018130;28;20183;-84
2021/04/03 02:35:29;;;;;;;35.30;5.97;;;3.10;86.80;;;;;;5018046;28;20553;-85
2021/04/03 02:38:04;;;;;;;31.43;6.47;;;3.00;86.80;;;;;;5035625;28;20288;-84
2021/04/03 02:40:39;;;;;;;42.67;6.93;;;3.00;86.90;;;;;;5035256;28;20648;-84
2021/04/03 02:43:15;;;;;;;32.03;6.60;;;3.00;86.90;;;;;;5017884;28;20180;-84
2021/04/03 02:45:55;;;;;;;34.87;7.50;;;3.00;86.80;;;;;;5036003;28;20588;-84
2021/04/03 02:48:30;;;;;;;32.43;6.90;;;2.90;86.80;;;;;;5035513;28;20300;-85
2021/04/03 02:51:07;;;;;;;24.60;6.20;;;2.90;87.10;;;;;;5035600;28;20182;-84
2021/04/03 02:53:39;;;;;;;34.80;7.17;;;2.90;87.00;;;;;;5017857;28;20175;-84
2021/04/03 02:56:14;;;;;;;35.97;6.53;;;2.90;86.90;;;;;;5035464;28;20685;-86
2021/04/03 02:58:50;;;;;;;40.77;7.23;;;2.90;86.90;;;;;;5035425;28;20193;-87
2021/04/03 03:01:25;;;;;;;22.43;6.07;;;2.90;86.70;;;;;;5035468;28;20179;-87
2021/04/03 03:03:55;;;;;;;35.40;5.80;;;2.80;86.70;;;;;;5035385;28;20637;-87
2021/04/03 03:06:24;;;;;;;23.83;6.77;;;2.80;86.80;;;;;;5035291;28;20239;-87
2021/04/03 03:09:02;;;;;;;19.43;6.57;;;2.80;86.70;;;;;;5035036;28;20703;-87
2021/04/03 03:11:34;;;;;;;22.90;6.90;;;2.80;86.60;;;;;;5017421;28;20185;-87
2021/04/03 03:14:10;;;;;;;46.30;8.43;;;2.80;86.50;;;;;;5035171;28;20181;-87
2021/04/03 03:16:41;;;;;;;31.63;6.30;;;2.80;86.40;;;;;;5035033;28;20663;-87
2021/04/03 03:19:13;;;;;;;35.83;9.23;;;2.70;86.40;;;;;;5035043;28;20187;-87
2021/04/03 03:21:44;;;;;;;36.73;7.47;;;2.70;86.70;;;;;;5017261;28;20174;-87
2021/04/03 03:24:20;;;;;;;27.33;6.30;;;2.60;86.70;;;;;;5034972;28;20177;-87
2021/04/03 03:26:54;;;;;;;31.40;7.23;;;2.60;86.80;;;;;;5034903;28;20168;-87
2021/04/03 03:29:30;;;;;;;32.83;7.07;;;2.60;86.60;;;;;;5034883;28;20169;-87
2021/04/03 03:32:04;;;;;;;28.13;5.93;;;2.60;86.50;;;;;;5034852;28;20172;-87
2021/04/03 03:34:33;;;;;;;28.53;6.73;;;2.50;86.50;;;;;;5034777;28;20189;-87
2021/04/03 03:37:00;;;;;;;31.43;6.10;;;2.60;86.50;;;;;;5016805;28;20200;-86
2021/04/03 03:39:37;;;;;;;27.07;6.30;;;2.60;86.40;;;;;;5016964;28;20174;-88
2021/04/03 03:42:08;;;;;;;30.40;6.23;;;2.50;86.10;;;;;;5034607;28;20256;-87
2021/04/03 03:44:43;;;;;;;29.17;6.67;;;2.50;86.20;;;;;;5016761;28;20732;-87
2021/04/03 03:47:14;;;;;;;27.27;6.63;;;2.50;86.20;;;;;;5034468;28;20202;-87
2021/04/03 03:49:50;;;;;;;23.93;4.87;;;2.50;86.10;;;;;;5034323;28;20180;-87
2021/04/03 03:52:21;;;;;;;23.53;6.03;;;2.60;85.80;;;;;;5016966;28;20565;-87
2021/04/03 03:54:54;;;;;;;29.47;6.53;;;2.60;85.70;;;;;;5016675;28;20213;-87
2021/04/03 03:57:20;;;;;;;23.20;6.40;;;2.60;85.60;;;;;;5034460;28;20203;-87
2021/04/03 03:59:54;;;;;;;19.00;5.93;;;2.50;85.60;;;;;;5034303;28;20166;-88
2021/04/03 04:02:27;;;;;;;22.23;5.47;;;2.40;85.50;;;;;;5016898;28;20669;-87
2021/04/03 04:04:53;;;;;;;20.70;5.97;;;2.50;85.20;;;;;;5017481;28;20174;-87
2021/04/03 04:09:57;;;;;;;21.27;5.57;;;2.50;85.40;;;;;;5017197;28;20206;-83
2021/04/03 04:12:33;;;;;;;24.40;5.90;;;2.40;85.10;;;;;;5001249;28;20182;-82
2021/04/03 04:15:06;;;;;;;18.87;5.60;;;2.30;85.20;;;;;;5000777;28;20728;-80
2021/04/03 04:17:31;;;;;;;26.73;5.40;;;2.20;85.30;;;;;;5018122;28;20380;-81
2021/04/03 04:20:04;;;;;;;17.37;5.63;;;2.10;85.20;;;;;;5000685;28;20594;-81
2021/04/03 04:22:37;;;;;;;17.27;5.67;;;2.10;85.30;;;;;;5019744;28;20215;-81
2021/04/03 04:25:11;;;;;;;21.73;5.30;;;2.10;85.20;;;;;;5015265;28;20225;-81
2021/04/03 04:27:37;;;;;;;17.90;5.77;;;2.10;85.20;;;;;;5015343;28;20226;-82
2021/04/03 04:30:12;;;;;;;22.27;5.53;;;2.00;85.00;;;;;;5017978;28;20556;-81
2021/04/03 04:32:44;;;;;;;21.07;6.20;;;1.90;85.10;;;;;;5018750;28;20245;-81
2021/04/03 04:35:20;;;;;;;19.90;5.60;;;1.80;85.20;;;;;;5018854;28;20242;-80
2021/04/03 04:37:50;;;;;;;18.40;5.07;;;1.80;85.20;;;;;;5018614;28;20201;-81
2021/04/03 04:40:23;;;;;;;17.93;5.23;;;1.80;85.10;;;;;;5018224;28;20169;-81
2021/04/03 04:42:54;;;;;;;19.27;6.43;;;1.70;85.00;;;;;;5000551;28;20197;-80
2021/04/03 04:45:23;;;;;;;20.37;5.03;;;1.70;85.10;;;;;;5000632;28;20171;-80
2021/04/03 04:48:00;;;;;;;19.23;5.30;;;1.70;85.00;;;;;;5018624;28;20621;-80
2021/04/03 04:50:26;;;;;;;18.50;5.17;;;1.60;85.10;;;;;;5018429;28;20256;-80
2021/04/03 04:53:00;;;;;;;18.13;5.43;;;1.60;85.00;;;;;;5018279;28;20232;-81
2021/04/03 04:55:34;;;;;;;24.50;6.17;;;1.60;85.00;;;;;;5017849;28;20173;-80
2021/04/03 04:58:05;;;;;;;16.50;5.70;;;1.60;85.00;;;;;;5017516;28;20231;-80
2021/04/03 05:00:41;;;;;;;17.10;5.73;;;1.70;85.00;;;;;;5018027;28;20555;-80
2021/04/03 05:03:07;;;;;;;23.67;5.60;;;1.70;84.90;;;;;;5017474;28;20204;-80
2021/04/03 05:05:41;;;;;;;20.47;5.13;;;1.80;84.80;;;;;;5000243;28;20178;-80
2021/04/03 05:08:14;;;;;;;13.77;4.80;;;1.80;84.70;;;;;;5000337;28;20219;-80
2021/04/03 05:10:50;;;;;;;15.50;4.43;;;1.70;84.70;;;;;;5019012;28;20671;-80
2021/04/03 05:13:24;;;;;;;24.20;5.67;;;1.80;84.60;;;;;;5018186;28;20173;-80
2021/04/03 05:15:57;;;;;;;15.40;5.23;;;1.80;84.40;;;;;;5000372;28;20173;-80
2021/04/03 05:18:27;;;;;;;16.07;5.10;;;2.00;84.60;;;;;;5018409;28;20569;-80
2021/04/03 05:21:03;;;;;;;20.33;5.07;;;2.20;84.60;;;;;;5018011;28;20176;-82
2021/04/03 05:23:36;;;;;;;15.73;4.73;;;2.20;84.40;;;;;;5000382;28;20551;-80
2021/04/03 05:26:10;;;;;;;14.80;4.93;;;2.20;84.30;;;;;;5018636;28;20174;-80
2021/04/03 05:28:46;;;;;;;12.97;4.70;;;2.10;84.20;;;;;;5000273;28;20265;-80
2021/04/03 05:31:21;;;;;;;15.63;5.37;;;2.00;84.20;;;;;;4999104;28;20213;-80
2021/04/03 05:33:54;;;;;;;19.53;4.97;;;2.00;84.10;;;;;;5018285;28;20234;-82
2021/04/03 05:36:28;;;;;;;13.30;5.00;;;2.10;84.30;;;;;;5000187;28;20244;-81
2021/04/03 05:38:58;;;;;;;22.73;4.87;;;2.10;84.30;;;;;;5000148;28;20328;-84
2021/04/03 05:41:25;;;;;;;17.47;5.23;;;2.20;84.10;;;;;;5018039;28;20262;-80
2021/04/03 05:43:58;;;;;;;17.13;5.40;;;2.10;84.00;;;;;;5000225;28;20174;-81
2021/04/03 05:46:33;;;;;;;18.90;5.37;;;2.00;84.20;;;;;;5018132;28;20185;-81
2021/04/03 05:49:11;;;;;;;13.30;5.13;;;2.00;84.40;;;;;;5000362;28;20199;-81
2021/04/03 05:51:39;;;;;;;17.47;5.37;;;1.90;84.40;;;;;;5018403;28;20177;-81
2021/04/03 05:54:13;;;;;;;21.40;5.03;;;2.00;84.90;;;;;;5000276;28;20183;-81
2021/04/03 05:56:49;;;;;;;16.10;4.93;;;2.20;84.90;;;;;;5018754;28;20201;-80
2021/04/03 05:59:23;;;;;;;21.10;5.80;;;2.20;84.90;;;;;;5000211;28;20243;-80
2021/04/03 06:01:57;;;;;;;15.13;4.80;;;2.30;84.80;;;;;;5018200;28;20229;-81
2021/04/03 06:04:24;;;;;;;19.03;5.53;;;2.40;84.70;;;;;;4999929;28;20174;-81
2021/04/03 06:06:57;;;;;;;17.73;6.93;;;2.40;84.60;;;;;;5017668;28;20185;-81
2021/04/03 06:09:31;;;;;;;15.33;5.33;;;2.50;84.40;;;;;;5017374;28;20215;-81
2021/04/03 06:12:03;;;;;;;15.90;6.17;;;2.40;84.40;;;;;;4999866;28;20241;-80
2021/04/03 06:14:42;;;;;;;20.47;5.90;;;2.40;85.20;;;;;;5018848;28;20170;-80
2021/04/03 06:17:14;;;;;;;17.43;6.07;;;2.50;85.80;;;;;;5020691;28;20262;-81
2021/04/03 06:19:53;;;;;;;21.70;6.03;;;2.60;85.40;;;;;;5002560;28;20200;-81
2021/04/03 06:22:29;;;;;;;14.37;5.43;;;2.70;85.40;;;;;;5020911;28;20255;-81
2021/04/03 06:25:07;;;;;;;20.57;5.90;;;2.70;85.30;;;;;;5003450;28;20510;-81
2021/04/03 06:27:43;;;;;;;14.23;5.63;;;2.80;85.40;;;;;;5020647;28;20206;-82
2021/04/03 06:30:34;;;;;;;15.00;5.93;;;2.80;85.40;;;;;;5002973;28;20178;-81
2021/04/03 06:33:18;;;;;;;23.90;6.13;;;2.80;85.40;;;;;;5020790;28;20259;-81
2021/04/03 06:36:08;;;;;;;18.47;5.93;;;2.80;85.80;;;;;;5020642;28;20170;-81
2021/04/03 06:38:41;;;;;;;18.30;5.60;;;2.80;86.00;;;;;;5020805;28;20207;-81
2021/04/03 06:41:27;;;;;;;12.73;5.87;;;2.80;86.30;;;;;;5003235;28;20199;-81
2021/04/03 06:44:10;;;;;;;17.27;6.93;;;2.90;86.40;;;;;;5003274;28;20177;-81
2021/04/03 06:46:44;;;;;;;25.97;7.27;;;2.90;86.00;;;;;;5021008;28;20226;-81
2021/04/03 06:49:15;;;;;;;11.53;5.70;;;3.00;86.10;;;;;;5002272;28;20251;-81
2021/04/03 06:51:47;;;;;;;19.07;6.03;;;3.00;85.90;;;;;;5020096;28;20189;-81
2021/04/03 06:54:14;;;;;;;21.57;6.87;;;3.00;86.00;;;;;;5004385;28;20182;-81
2021/04/03 06:56:45;;;;;;;21.60;6.23;;;3.10;86.10;;;;;;5003921;28;20258;-82
2021/04/03 06:59:18;;;;;;;13.97;5.80;;;3.10;86.10;;;;;;5020089;28;20194;-81
2021/04/03 07:01:51;;;;;;;21.43;8.00;;;3.30;86.20;;;;;;5002322;28;20175;-80
2021/04/03 07:04:29;;;;;;;13.63;6.33;;;3.40;86.40;;;;;;5020745;28;20188;-80
2021/04/03 07:06:58;;;;;;;19.07;6.47;;;3.40;86.40;;;;;;5001858;28;20671;-81
2021/04/03 07:09:25;;;;;;;17.27;6.60;;;3.40;86.20;;;;;;5019250;28;20296;-80
2021/04/03 07:12:00;;;;;;;9.77;5.80;;;3.60;86.30;;;;;;5019870;28;20208;-82
2021/04/03 07:14:33;;;;;;;15.53;6.10;;;3.70;85.80;;;;;;5001410;28;20210;-80
2021/04/03 07:17:03;;;;;;;12.70;5.40;;;3.70;85.60;;;;;;5019294;28;20734;-82
2021/04/03 07:19:37;;;;;;;8.13;4.83;;;3.90;85.50;;;;;;5001439;28;20288;-81
2021/04/03 07:22:05;;;;;;;9.13;4.73;;;4.00;85.50;;;;;;5001520;28;20185;-81
2021/04/03 07:24:35;;;;;;;12.90;5.60;;;4.20;85.10;;;;;;5018686;28;20176;-82
2021/04/03 07:27:09;;;;;;;18.93;5.43;;;4.30;84.70;;;;;;5001879;28;20268;-81
2021/04/03 07:29:50;;;;;;;12.93;5.70;;;4.40;84.50;;;;;;5018675;28;20192;-81
2021/04/03 07:32:40;;;;;;;18.40;5.70;;;4.50;84.20;;;;;;5000806;28;20645;-81
2021/04/03 07:35:23;;;;;;;11.93;5.07;;;4.60;84.00;;;;;;5001030;28;20205;-81
2021/04/03 07:38:07;;;;;;;17.00;5.70;;;4.70;83.60;;;;;;5000625;28;20580;-81
2021/04/03 07:40:47;;;;;;;13.30;5.10;;;4.90;83.40;;;;;;5018783;28;20173;-81
2021/04/03 07:43:40;;;;;;;11.70;5.20;;;5.10;82.20;;;;;;5018643;28;20165;-81
2021/04/03 07:46:28;;;;;;;10.67;4.27;;;5.30;81.10;;;;;;5018764;28;20555;-82
2021/04/03 07:49:02;;;;;;;10.93;4.57;;;5.50;79.90;;;;;;5018585;28;20185;-81
2021/04/03 07:51:41;;;;;;;9.10;3.97;;;5.60;79.80;;;;;;5018735;28;20172;-82
2021/04/03 07:54:24;;;;;;;13.27;4.93;;;5.80;79.60;;;;;;5000994;28;20166;-81
2021/04/03 07:56:57;;;;;;;8.97;4.67;;;5.70;77.80;;;;;;5018346;28;20193;-81
2021/04/03 08:00:11;;;;;;;12.70;4.73;;;5.70;77.60;;;;;;5018550;28;20280;-82
2021/04/03 08:02:43;;;;;;;12.93;4.10;;;5.90;77.40;;;;;;4938901;29;20180;-81
2021/04/03 08:05:22;;;;;;;15.27;4.20;;;5.90;77.50;;;;;;4922267;29;20185;-81
2021/04/03 08:08:01;;;;;;;13.63;4.40;;;6.00;77.90;;;;;;4993415;28;20227;-81
2021/04/03 08:10:27;;;;;;;10.17;3.57;;;6.00;76.90;;;;;;5000405;28;20176;-81
2021/04/03 08:13:02;;;;;;;10.23;3.80;;;6.30;74.70;;;;;;5000522;28;20178;-81
2021/04/03 08:15:35;;;;;;;6.03;3.03;;;6.50;75.40;;;;;;4999973;28;20184;-81
2021/04/03 08:18:10;;;;;;;8.67;3.57;;;6.50;73.30;;;;;;4999082;28;20744;-81
2021/04/03 08:20:54;;;;;;;5.70;3.67;;;6.60;72.80;;;;;;5017356;28;20241;-81
2021/04/03 08:23:47;;;;;;;7.10;3.53;;;6.60;74.00;;;;;;4999669;28;20190;-81
2021/04/03 08:26:17;;;;;;;6.97;4.00;;;6.60;74.20;;;;;;5018112;28;20247;-81
2021/04/03 08:28:46;;;;;;;11.97;3.70;;;6.50;75.40;;;;;;5017930;28;20190;-81
2021/04/03 08:31:20;;;;;;;8.60;3.60;;;6.50;74.90;;;;;;5018174;28;20176;-82
2021/04/03 08:33:58;;;;;;;6.93;3.57;;;6.60;73.80;;;;;;5000134;28;20185;-82
2021/04/03 08:36:26;;;;;;;8.63;3.90;;;6.80;74.20;;;;;;5017659;28;20684;-81
2021/04/03 08:38:57;;;;;;;7.00;3.47;;;6.80;73.00;;;;;;5001010;28;20343;-81
2021/04/03 08:41:27;;;;;;;8.33;3.87;;;6.90;74.10;;;;;;5017377;28;20176;-81
2021/04/03 08:43:58;;;;;;;8.00;3.80;;;7.10;75.00;;;;;;5017345;28;20180;-82
2021/04/03 08:46:33;;;;;;;9.30;3.40;;;7.10;74.00;;;;;;5017881;28;20176;-80
2021/04/03 08:49:00;;;;;;;12.03;3.63;;;7.30;69.10;;;;;;5017547;28;20204;-81
2021/04/03 08:51:29;;;;;;;6.37;3.43;;;7.60;69.70;;;;;;4999333;28;20203;-80
2021/04/03 08:54:03;;;;;;;9.57;3.60;;;7.70;71.40;;;;;;4999353;28;20184;-81
2021/04/03 08:56:36;;;;;;;7.23;3.17;;;7.60;72.90;;;;;;5016632;28;20286;-81
2021/04/03 08:59:34;;;;;;;13.93;3.43;;;7.70;72.50;;;;;;4999154;28;20207;-81
2021/04/03 09:02:04;;;;;;;6.33;2.87;;;7.80;71.80;;;;;;5002353;28;20274;-81
2021/04/03 09:04:36;;;;;;;6.20;3.47;;;8.00;67.90;;;;;;5017431;28;20174;-81
2021/04/03 09:07:13;;;;;;;12.13;2.60;;;8.10;68.20;;;;;;5017162;28;20181;-81
2021/04/03 09:10:02;;;;;;;10.67;3.53;;;8.10;61.80;;;;;;5016898;28;20212;-81
2021/04/03 09:12:34;;;;;;;7.60;3.20;;;8.20;64.20;;;;;;5000006;28;20219;-81
2021/04/03 09:15:10;;;;;;;6.90;3.30;;;8.30;65.80;;;;;;5017876;28;20165;-81
2021/04/03 09:17:53;;;;;;;3.90;1.90;;;8.50;66.20;;;;;;5001341;28;20204;-81
2021/04/03 09:20:44;;;;;;;5.60;2.00;;;8.70;56.30;;;;;;4999828;28;20177;-81
2021/04/03 09:23:24;;;;;;;6.87;2.30;;;8.70;59.00;;;;;;5017504;28;20176;-81
2021/04/03 09:26:13;;;;;;;3.73;1.90;;;8.90;59.20;;;;;;5000577;28;20237;-81
2021/04/03 09:28:47;;;;;;;7.90;2.03;;;9.10;52.60;;;;;;5000115;28;20551;-81
2021/04/03 09:31:20;;;;;;;5.07;1.77;;;9.00;49.80;;;;;;5016479;28;20174;-81
2021/04/03 09:33:54;;;;;;;4.17;1.93;;;9.20;55.90;;;;;;4996819;28;20181;-81
2021/04/03 09:36:43;;;;;;;3.67;1.90;;;9.30;50.50;;;;;;4996613;28;20198;-81
2021/04/03 09:39:17;;;;;;;7.43;2.10;;;9.30;51.70;;;;;;5014061;28;20186;-81
2021/04/03 09:41:54;;;;;;;2.97;1.90;;;9.40;48.60;;;;;;5013877;28;20174;-81
2021/04/03 09:44:31;;;;;;;3.93;1.67;;;9.50;49.70;;;;;;5013786;28;20641;-81
2021/04/03 09:47:03;;;;;;;4.83;2.07;;;9.60;50.70;;;;;;4997840;28;20185;-81
2021/04/03 09:49:39;;;;;;;4.90;1.90;;;9.70;48.60;;;;;;5018265;28;20347;-82
2021/04/03 09:52:13;;;;;;;10.30;2.00;;;9.70;49.70;;;;;;5018213;28;20248;-81
2021/04/03 09:54:49;;;;;;;3.97;2.00;;;10.00;50.30;;;;;;5000821;28;20180;-81
2021/04/03 09:57:24;;;;;;;3.53;1.90;;;10.20;52.10;;;;;;5020728;28;20204;-82
2021/04/03 09:59:59;;;;;;;3.77;1.93;;;10.30;52.70;;;;;;5017854;28;20173;-81
2021/04/03 10:02:32;;;;;;;5.77;2.10;;;10.50;51.10;;;;;;5018918;28;20176;-81
2021/04/03 10:05:05;;;;;;;7.27;2.03;;;10.50;47.90;;;;;;5019590;28;20222;-81
2021/04/03 10:07:31;;;;;;;7.60;2.30;;;10.40;48.40;;;;;;5017822;28;20532;-81
2021/04/03 10:10:04;;;;;;;6.20;2.70;;;10.50;48.60;;;;;;5057530;23;20234;-82
2021/04/03 10:12:36;;;;;;;5.20;2.57;;;10.60;52.30;;;;;;5056196;28;20221;-83
2021/04/03 10:15:14;;;;;;;5.17;2.73;;;10.80;52.80;;;;;;5056223;28;20168;-81
2021/04/03 10:17:51;;;;;;;4.43;2.40;;;11.00;51.20;;;;;;5056300;28;20207;-82
2021/04/03 10:20:22;;;;;;;5.57;2.50;;;11.20;53.30;;;;;;5036572;28;20165;-81
2021/04/03 10:22:57;;;;;;;3.57;2.37;;;11.10;50.80;;;;;;5018497;28;20561;-83
2021/04/03 10:25:29;;;;;;;5.10;2.60;;;10.90;48.60;;;;;;5036179;28;20172;-83
2021/04/03 10:28:00;;;;;;;6.83;2.70;;;11.10;51.10;;;;;;5036086;28;20172;-81
2021/04/03 10:30:33;;;;;;;4.63;2.60;;;11.40;55.20;;;;;;5036739;28;20226;-81
2021/04/03 10:33:14;;;;;;;5.13;3.23;;;11.40;49.40;;;;;;5036607;28;20539;-81
2021/04/03 10:35:48;;;;;;;8.40;2.23;;;11.30;48.60;;;;;;5036426;28;20540;-81
2021/04/03 10:38:21;;;;;;;5.13;2.93;;;11.30;51.20;;;;;;5018076;28;20299;-81
2021/04/03 10:40:54;;;;;;;6.73;3.57;;;11.60;50.60;;;;;;5036069;28;20165;-81
2021/04/03 10:43:24;;;;;;;15.10;5.20;;;11.90;49.10;;;;;;5035959;28;20203;-81
2021/04/03 10:46:01;;;;;;;6.90;3.30;;;11.70;46.70;;;;;;5035696;28;20262;-83
2021/04/03 10:48:34;;;;;;;6.60;3.70;;;11.50;50.30;;;;;;5035875;28;20185;-83
2021/04/03 10:51:05;;;;;;;9.23;3.60;;;11.60;50.60;;;;;;5035641;28;20718;-83
2021/04/03 10:53:44;;;;;;;7.70;3.27;;;11.80;50.50;;;;;;5035485;28;20239;-81
2021/04/03 10:56:16;;;;;;;4.27;2.57;;;12.00;49.50;;;;;;5035860;28;20176;-81
2021/04/03 10:58:53;;;;;;;7.00;3.00;;;12.20;47.10;;;;;;5035466;28;20695;-81
2021/04/03 11:01:23;;;;;;;3.70;2.67;;;12.40;49.50;;;;;;5034819;28;20173;-81
2021/04/03 11:03:53;;;;;;;4.00;2.53;;;12.40;47.80;;;;;;5035561;28;20251;-81
2021/04/03 11:06:24;;;;;;;4.83;2.43;;;12.60;48.50;;;;;;5035416;28;20181;-81
2021/04/03 11:08:57;;;;;;;5.53;2.37;;;12.70;46.00;;;;;;5035180;28;20663;-82
2021/04/03 11:11:29;;;;;;;15.00;5.03;;;12.40;46.00;;;;;;5036381;28;20168;-82
2021/04/03 11:14:01;;;;;;;9.53;4.57;;;12.40;44.40;;;;;;5035297;28;20192;-82
2021/04/03 11:16:37;;;;;;;11.07;6.00;;;12.30;45.90;;;;;;5035335;28;20276;-82
2021/04/03 11:19:11;;;;;;;8.73;4.60;;;12.30;46.40;;;;;;5035110;28;20676;-82
2021/04/03 11:21:47;;;;;;;3.77;2.80;;;12.50;47.20;;;;;;5017585;28;20183;-82
2021/04/03 11:24:19;;;;;;;4.67;2.13;;;12.40;47.30;;;;;;5035334;28;20165;-82
2021/04/03 11:26:53;;;;;;;4.83;2.43;;;12.50;45.40;;;;;;5035441;28;20208;-82
2021/04/03 11:29:27;;;;;;;6.83;2.47;;;12.60;45.50;;;;;;5035056;28;20223;-82
2021/04/03 11:32:04;;;;;;;6.67;2.10;;;12.70;45.40;;;;;;5017404;28;20204;-82
2021/04/03 11:34:39;;;;;;;10.37;2.30;;;12.70;42.10;;;;;;5017400;28;20556;-82
2021/04/03 11:37:14;;;;;;;9.40;4.83;;;12.30;44.90;;;;;;5035363;28;20207;-82
2021/04/03 11:39:51;;;;;;;11.93;5.57;;;12.70;44.50;;;;;;5033515;28;20204;-82
2021/04/03 11:42:17;;;;;;;16.03;6.93;;;12.80;43.00;;;;;;5017190;28;20204;-81
2021/04/03 11:44:43;;;;;;;12.00;5.73;;;12.60;41.40;;;;;;5037005;28;20173;-80
2021/04/03 11:47:14;;;;;;;7.13;3.30;;;12.80;42.70;;;;;;5037148;28;20227;-82
2021/04/03 11:49:43;;;;;;;9.40;2.57;;;13.10;40.50;;;;;;5035226;28;20215;-81
2021/04/03 11:52:09;;;;;;;4.00;2.20;;;13.20;44.40;;;;;;5035268;28;20690;-81
2021/04/03 11:54:38;;;;;;;3.70;1.87;;;12.80;41.50;;;;;;5035164;28;20180;-80
2021/04/03 11:57:04;;;;;;;4.37;1.83;;;12.80;40.80;;;;;;5035686;28;20200;-79
2021/04/03 11:59:31;;;;;;;3.93;2.10;;;13.00;42.20;;;;;;5035724;28;20216;-80
2021/04/03 12:01:58;;;;;;;4.57;2.20;;;13.20;43.10;;;;;;5035821;28;20580;-80
2021/04/03 12:04:25;;;;;;;3.80;2.10;;;13.30;43.80;;;;;;5036001;28;20149;-81
2021/04/03 12:06:59;;;;;;;5.90;2.80;;;13.70;41.90;;;;;;5034988;28;20223;-82
2021/04/03 12:09:31;;;;;;;4.80;2.73;;;14.00;41.10;;;;;;5034133;28;20219;-82
2021/04/03 12:12:07;;;;;;;3.70;2.13;;;14.00;43.90;;;;;;5033888;28;20559;-82
2021/04/03 12:14:37;;;;;;;3.80;2.67;;;13.60;43.00;;;;;;5016750;28;20184;-82
2021/04/03 12:17:10;;;;;;;7.67;4.00;;;13.80;41.50;;;;;;5034166;28;20232;-82
2021/04/03 12:19:38;;;;;;;7.47;4.27;;;13.90;42.70;;;;;;5034248;28;20203;-82
2021/04/03 12:22:05;;;;;;;4.17;2.43;;;13.80;42.20;;;;;;5016665;28;20180;-81
2021/04/03 12:24:36;;;;;;;7.00;2.73;;;14.10;42.50;;;;;;5016532;28;20185;-82
2021/04/03 12:27:11;;;;;;;6.80;3.43;;;14.20;40.60;;;;;;5016705;28;20187;-82
2021/04/03 12:29:37;;;;;;;6.07;3.27;;;14.50;41.00;;;;;;5016195;28;20200;-82
2021/04/03 12:32:04;;;;;;;3.63;2.93;;;14.70;42.70;;;;;;5016395;28;20185;-81
2021/04/03 12:34:32;;;;;;;6.87;3.80;;;14.50;39.80;;;;;;5033997;28;20264;-81
2021/04/03 12:37:01;;;;;;;5.77;2.10;;;14.50;41.00;;;;;;5034341;28;20586;-82
2021/04/03 12:39:34;;;;;;;3.43;2.20;;;14.30;39.40;;;;;;5033689;28;20196;-82
2021/04/03 12:42:02;;;;;;;6.87;1.90;;;14.40;40.50;;;;;;5033930;28;20177;-82
2021/04/03 12:44:32;;;;;;;5.73;3.00;;;14.60;40.20;;;;;;5033756;28;20177;-81
2021/04/03 12:46:59;;;;;;;6.10;3.10;;;14.40;41.50;;;;;;5033847;28;20181;-82
2021/04/03 12:49:26;;;;;;;4.80;2.67;;;14.50;42.90;;;;;;5015995;28;20223;-82
2021/04/03 12:51:54;;;;;;;5.67;2.60;;;14.80;42.90;;;;;;5033803;28;20177;-82
2021/04/03 12:54:29;;;;;;;4.67;2.30;;;15.00;43.50;;;;;;5033394;28;20191;-82
2021/04/03 12:56:59;;;;;;;4.83;2.43;;;14.90;40.70;;;;;;5033478;28;20201;-82
2021/04/03 12:59:28;;;;;;;4.90;2.27;;;14.60;43.20;;;;;;5033606;28;20193;-82
2021/04/03 13:01:56;;;;;;;9.13;2.30;;;14.70;44.10;;;;;;5033764;28;20588;-81
2021/04/03 13:04:26;;;;;;;8.07;2.50;;;14.30;43.50;;;;;;5016036;28;20617;-82
2021/04/03 13:06:54;;;;;;;9.70;2.50;;;14.50;42.40;;;;;;5033549;28;20582;-81
2021/04/03 13:09:22;;;;;;;6.13;2.50;;;13.80;45.90;;;;;;5033552;28;20262;-82
2021/04/03 13:11:59;;;;;;;7.47;2.40;;;14.40;45.50;;;;;;5015532;28;20188;-81
2021/04/03 13:14:32;;;;;;;5.03;2.50;;;14.00;46.50;;;;;;5015695;28;20352;-82
2021/04/03 13:17:04;;;;;;;5.27;2.43;;;14.60;46.30;;;;;;5033421;28;20279;-82
2021/04/03 13:19:30;;;;;;;4.10;2.47;;;14.00;43.40;;;;;;5033048;28;20200;-82
2021/04/03 13:22:01;;;;;;;10.77;2.60;;;14.10;44.70;;;;;;5033272;28;20173;-83
2021/04/03 13:24:34;;;;;;;4.70;2.70;;;14.30;45.30;;;;;;5038925;28;20172;-83
2021/04/03 13:27:05;;;;;;;3.07;2.10;;;14.20;43.40;;;;;;5023254;28;20591;-83